sensor_id;sensor_type;location;lat;lon;timestamp;P1;durP1;ratioP1;P2;durP2;ratioP2
72926;SDS011;61071;51.618;19.388;2023-05-10T00:00:21;7.55;;;3.40;;
72926;SDS011;61071;51.618;19.388;2023-05-10T00:02:48;6.05;;;3.17;;
72926;SDS011;61071;51.618;19.388;2023-05-10T00:05:14;5.47;;;3.20;;
72926;SDS011;61071;51.618;19.388;2023-05-10T00:07:40;6.68;;;3.42;;
72926;SDS011;61071;51.618;19.388;2023-05-10T00:10:09;7.07;;;4.00;;
72926;SDS011;61071;51.618;19.388;2023-05-10T00:12:36;6.93;;;3.22;;
72926;SDS011;61071;51.618;19.388;2023-05-10T00:15:02;10.77;;;4.03;;
72926;SDS011;61071;51.618;19.388;2023-05-10T00:17:29;9.77;;;3.70;;
72926;SDS011;61071;51.618;19.388;2023-05-10T00:19:55;8.05;;;3.30;;
72926;SDS011;61071;51.618;19.388;2023-05-10T00:22:20;7.03;;;3.28;;
72926;SDS011;61071;51.618;19.388;2023-05-10T00:24:46;7.70;;;3.30;;
72926;SDS011;61071;51.618;19.388;2023-05-10T00:27:12;6.30;;;3.10;;
72926;SDS011;61071;51.618;19.388;2023-05-10T00:29:38;6.47;;;3.25;;
72926;SDS011;61071;51.618;19.388;2023-05-10T00:32:03;7.47;;;3.38;;
72926;SDS011;61071;51.618;19.388;2023-05-10T00:34:30;5.93;;;3.83;;
72926;SDS011;61071;51.618;19.388;2023-05-10T00:36:55;6.85;;;3.60;;
72926;SDS011;61071;51.618;19.388;2023-05-10T00:39:21;9.10;;;3.83;;
72926;SDS011;61071;51.618;19.388;2023-05-10T00:41:47;7.20;;;3.08;;
72926;SDS011;61071;51.618;19.388;2023-05-10T00:44:12;5.57;;;3.45;;
72926;SDS011;61071;51.618;19.388;2023-05-10T00:46:39;7.70;;;4.15;;
72926;SDS011;61071;51.618;19.388;2023-05-10T00:49:06;7.35;;;3.65;;
72926;SDS011;61071;51.618;19.388;2023-05-10T00:51:32;5.03;;;3.33;;
72926;SDS011;61071;51.618;19.388;2023-05-10T00:53:58;8.30;;;3.42;;
72926;SDS011;61071;51.618;19.388;2023-05-10T00:56:25;6.60;;;3.08;;
72926;SDS011;61071;51.618;19.388;2023-05-10T00:58:51;6.13;;;3.33;;
72926;SDS011;61071;51.618;19.388;2023-05-10T01:01:17;6.78;;;3.22;;
72926;SDS011;61071;51.618;19.388;2023-05-10T01:03:44;6.25;;;3.20;;
72926;SDS011;61071;51.618;19.388;2023-05-10T01:06:12;8.18;;;3.20;;
72926;SDS011;61071;51.618;19.388;2023-05-10T01:08:38;5.07;;;3.00;;
72926;SDS011;61071;51.618;19.388;2023-05-10T01:11:05;8.38;;;3.22;;
72926;SDS011;61071;51.618;19.388;2023-05-10T01:13:34;5.47;;;2.83;;
72926;SDS011;61071;51.618;19.388;2023-05-10T01:16:03;8.13;;;3.67;;
72926;SDS011;61071;51.618;19.388;2023-05-10T01:18:32;6.78;;;3.38;;
72926;SDS011;61071;51.618;19.388;2023-05-10T01:24:22;6.80;;;3.35;;
72926;SDS011;61071;51.618;19.388;2023-05-10T01:30:05;8.05;;;3.30;;
72926;SDS011;61071;51.618;19.388;2023-05-10T01:38:27;9.98;;;3.15;;
72926;SDS011;61071;51.618;19.388;2023-05-10T01:41:28;7.32;;;3.83;;
72926;SDS011;61071;51.618;19.388;2023-05-10T01:46:46;7.07;;;3.60;;
72926;SDS011;61071;51.618;19.388;2023-05-10T01:49:23;6.32;;;3.58;;
72926;SDS011;61071;51.618;19.388;2023-05-10T01:51:54;9.05;;;3.22;;
72926;SDS011;61071;51.618;19.388;2023-05-10T01:54:32;10.10;;;3.75;;
72926;SDS011;61071;51.618;19.388;2023-05-10T01:57:03;7.32;;;3.20;;
72926;SDS011;61071;51.618;19.388;2023-05-10T01:59:34;7.65;;;3.22;;
72926;SDS011;61071;51.618;19.388;2023-05-10T02:02:05;13.68;;;3.00;;
72926;SDS011;61071;51.618;19.388;2023-05-10T02:04:37;6.25;;;3.33;;
72926;SDS011;61071;51.618;19.388;2023-05-10T02:07:06;8.60;;;3.42;;
72926;SDS011;61071;51.618;19.388;2023-05-10T02:09:34;6.25;;;3.20;;
72926;SDS011;61071;51.618;19.388;2023-05-10T02:12:02;9.10;;;3.60;;
72926;SDS011;61071;51.618;19.388;2023-05-10T02:14:32;12.15;;;3.60;;
72926;SDS011;61071;51.618;19.388;2023-05-10T02:17:02;5.80;;;3.57;;
72926;SDS011;61071;51.618;19.388;2023-05-10T02:19:31;9.70;;;3.55;;
72926;SDS011;61071;51.618;19.388;2023-05-10T02:21:59;9.98;;;3.80;;
72926;SDS011;61071;51.618;19.388;2023-05-10T02:24:27;5.35;;;3.40;;
72926;SDS011;61071;51.618;19.388;2023-05-10T02:26:54;5.88;;;2.80;;
72926;SDS011;61071;51.618;19.388;2023-05-10T02:29:22;9.07;;;3.55;;
72926;SDS011;61071;51.618;19.388;2023-05-10T02:31:52;5.60;;;3.13;;
72926;SDS011;61071;51.618;19.388;2023-05-10T02:34:21;7.70;;;3.47;;
72926;SDS011;61071;51.618;19.388;2023-05-10T02:36:48;8.82;;;3.40;;
72926;SDS011;61071;51.618;19.388;2023-05-10T02:39:16;7.72;;;3.08;;
72926;SDS011;61071;51.618;19.388;2023-05-10T02:41:45;7.82;;;3.50;;
72926;SDS011;61071;51.618;19.388;2023-05-10T02:44:14;8.07;;;3.72;;
72926;SDS011;61071;51.618;19.388;2023-05-10T02:46:43;7.93;;;3.65;;
72926;SDS011;61071;51.618;19.388;2023-05-10T02:49:10;6.07;;;3.08;;
72926;SDS011;61071;51.618;19.388;2023-05-10T02:51:37;9.05;;;3.67;;
72926;SDS011;61071;51.618;19.388;2023-05-10T02:54:14;8.32;;;3.50;;
72926;SDS011;61071;51.618;19.388;2023-05-10T02:56:50;5.82;;;3.53;;
72926;SDS011;61071;51.618;19.388;2023-05-10T02:59:21;9.90;;;3.10;;
72926;SDS011;61071;51.618;19.388;2023-05-10T03:01:47;6.40;;;3.22;;
72926;SDS011;61071;51.618;19.388;2023-05-10T03:04:12;8.38;;;3.50;;
72926;SDS011;61071;51.618;19.388;2023-05-10T03:06:38;8.45;;;3.80;;
72926;SDS011;61071;51.618;19.388;2023-05-10T03:09:05;7.10;;;3.67;;
72926;SDS011;61071;51.618;19.388;2023-05-10T03:11:41;6.13;;;3.22;;
72926;SDS011;61071;51.618;19.388;2023-05-10T03:17:10;6.68;;;3.40;;
72926;SDS011;61071;51.618;19.388;2023-05-10T03:19:48;4.78;;;2.90;;
72926;SDS011;61071;51.618;19.388;2023-05-10T03:25:06;6.68;;;3.28;;
72926;SDS011;61071;51.618;19.388;2023-05-10T03:27:36;5.70;;;3.28;;
72926;SDS011;61071;51.618;19.388;2023-05-10T03:30:08;6.32;;;3.20;;
72926;SDS011;61071;51.618;19.388;2023-05-10T03:32:36;8.15;;;3.03;;
72926;SDS011;61071;51.618;19.388;2023-05-10T03:35:09;6.88;;;3.53;;
72926;SDS011;61071;51.618;19.388;2023-05-10T03:37:37;7.65;;;3.10;;
72926;SDS011;61071;51.618;19.388;2023-05-10T03:40:03;7.97;;;2.95;;
72926;SDS011;61071;51.618;19.388;2023-05-10T03:42:30;6.70;;;2.92;;
72926;SDS011;61071;51.618;19.388;2023-05-10T03:44:55;10.13;;;3.08;;
72926;SDS011;61071;51.618;19.388;2023-05-10T03:47:21;7.90;;;3.00;;
72926;SDS011;61071;51.618;19.388;2023-05-10T03:49:47;4.78;;;3.00;;
72926;SDS011;61071;51.618;19.388;2023-05-10T03:52:13;6.63;;;3.10;;
72926;SDS011;61071;51.618;19.388;2023-05-10T03:54:38;8.80;;;3.08;;
72926;SDS011;61071;51.618;19.388;2023-05-10T03:57:04;8.93;;;2.72;;
72926;SDS011;61071;51.618;19.388;2023-05-10T03:59:30;6.70;;;3.03;;
72926;SDS011;61071;51.618;19.388;2023-05-10T04:01:55;6.60;;;2.88;;
72926;SDS011;61071;51.618;19.388;2023-05-10T04:04:21;3.67;;;2.65;;
72926;SDS011;61071;51.618;19.388;2023-05-10T04:06:48;7.22;;;2.80;;
72926;SDS011;61071;51.618;19.388;2023-05-10T04:09:14;7.60;;;2.90;;
72926;SDS011;61071;51.618;19.388;2023-05-10T04:11:41;7.15;;;3.03;;
72926;SDS011;61071;51.618;19.388;2023-05-10T04:14:07;5.18;;;3.10;;
72926;SDS011;61071;51.618;19.388;2023-05-10T04:16:33;4.00;;;2.88;;
72926;SDS011;61071;51.618;19.388;2023-05-10T04:18:58;7.07;;;2.95;;
72926;SDS011;61071;51.618;19.388;2023-05-10T04:21:24;4.60;;;2.83;;
72926;SDS011;61071;51.618;19.388;2023-05-10T04:23:50;5.85;;;2.92;;
72926;SDS011;61071;51.618;19.388;2023-05-10T04:26:16;6.18;;;2.92;;
72926;SDS011;61071;51.618;19.388;2023-05-10T04:28:42;7.50;;;2.70;;
72926;SDS011;61071;51.618;19.388;2023-05-10T04:31:08;6.40;;;2.70;;
72926;SDS011;61071;51.618;19.388;2023-05-10T04:33:35;12.63;;;3.30;;
72926;SDS011;61071;51.618;19.388;2023-05-10T04:36:02;4.40;;;3.00;;
72926;SDS011;61071;51.618;19.388;2023-05-10T04:38:28;5.05;;;3.03;;
72926;SDS011;61071;51.618;19.388;2023-05-10T04:41:03;4.32;;;2.90;;
72926;SDS011;61071;51.618;19.388;2023-05-10T04:43:31;7.03;;;3.30;;
72926;SDS011;61071;51.618;19.388;2023-05-10T04:45:57;6.25;;;2.95;;
72926;SDS011;61071;51.618;19.388;2023-05-10T04:48:22;6.93;;;3.03;;
72926;SDS011;61071;51.618;19.388;2023-05-10T04:50:48;4.18;;;3.17;;
72926;SDS011;61071;51.618;19.388;2023-05-10T04:53:14;8.20;;;2.70;;
72926;SDS011;61071;51.618;19.388;2023-05-10T04:55:39;8.68;;;3.03;;
72926;SDS011;61071;51.618;19.388;2023-05-10T04:58:05;8.75;;;3.10;;
72926;SDS011;61071;51.618;19.388;2023-05-10T05:00:31;5.05;;;2.70;;
72926;SDS011;61071;51.618;19.388;2023-05-10T05:02:59;6.63;;;2.97;;
72926;SDS011;61071;51.618;19.388;2023-05-10T05:05:24;4.93;;;2.92;;
72926;SDS011;61071;51.618;19.388;2023-05-10T05:07:50;7.40;;;2.80;;
72926;SDS011;61071;51.618;19.388;2023-05-10T05:10:16;3.75;;;2.67;;
72926;SDS011;61071;51.618;19.388;2023-05-10T05:12:42;5.65;;;2.75;;
72926;SDS011;61071;51.618;19.388;2023-05-10T05:15:08;10.48;;;2.70;;
72926;SDS011;61071;51.618;19.388;2023-05-10T05:17:35;6.88;;;3.15;;
72926;SDS011;61071;51.618;19.388;2023-05-10T05:20:01;5.15;;;2.92;;
72926;SDS011;61071;51.618;19.388;2023-05-10T05:22:27;8.45;;;3.17;;
72926;SDS011;61071;51.618;19.388;2023-05-10T05:24:56;7.15;;;3.03;;
72926;SDS011;61071;51.618;19.388;2023-05-10T05:27:27;6.82;;;3.05;;
72926;SDS011;61071;51.618;19.388;2023-05-10T05:29:53;6.60;;;2.85;;
72926;SDS011;61071;51.618;19.388;2023-05-10T05:32:20;5.72;;;3.08;;
72926;SDS011;61071;51.618;19.388;2023-05-10T05:34:45;13.63;;;3.25;;
72926;SDS011;61071;51.618;19.388;2023-05-10T05:37:14;4.03;;;2.72;;
72926;SDS011;61071;51.618;19.388;2023-05-10T05:39:41;6.53;;;2.75;;
72926;SDS011;61071;51.618;19.388;2023-05-10T05:42:09;6.28;;;2.67;;
72926;SDS011;61071;51.618;19.388;2023-05-10T05:44:36;4.97;;;2.88;;
72926;SDS011;61071;51.618;19.388;2023-05-10T05:47:03;4.35;;;2.78;;
72926;SDS011;61071;51.618;19.388;2023-05-10T05:49:29;9.60;;;3.15;;
72926;SDS011;61071;51.618;19.388;2023-05-10T05:52:04;6.55;;;2.88;;
72926;SDS011;61071;51.618;19.388;2023-05-10T05:54:30;6.63;;;2.72;;
72926;SDS011;61071;51.618;19.388;2023-05-10T05:56:57;7.63;;;2.85;;
72926;SDS011;61071;51.618;19.388;2023-05-10T05:59:23;7.15;;;2.78;;
72926;SDS011;61071;51.618;19.388;2023-05-10T06:01:49;12.60;;;3.13;;
72926;SDS011;61071;51.618;19.388;2023-05-10T06:04:16;5.38;;;2.80;;
72926;SDS011;61071;51.618;19.388;2023-05-10T06:06:41;8.27;;;3.03;;
72926;SDS011;61071;51.618;19.388;2023-05-10T06:09:08;3.05;;;2.55;;
72926;SDS011;61071;51.618;19.388;2023-05-10T06:11:34;4.70;;;2.83;;
72926;SDS011;61071;51.618;19.388;2023-05-10T06:14:01;4.93;;;2.60;;
72926;SDS011;61071;51.618;19.388;2023-05-10T06:16:29;5.45;;;2.72;;
72926;SDS011;61071;51.618;19.388;2023-05-10T06:18:56;6.55;;;2.67;;
72926;SDS011;61071;51.618;19.388;2023-05-10T06:21:22;7.28;;;2.90;;
72926;SDS011;61071;51.618;19.388;2023-05-10T06:23:48;4.75;;;2.67;;
72926;SDS011;61071;51.618;19.388;2023-05-10T06:26:14;4.22;;;2.40;;
72926;SDS011;61071;51.618;19.388;2023-05-10T06:28:39;5.18;;;2.65;;
72926;SDS011;61071;51.618;19.388;2023-05-10T06:31:06;7.93;;;3.10;;
72926;SDS011;61071;51.618;19.388;2023-05-10T06:33:32;5.40;;;2.75;;
72926;SDS011;61071;51.618;19.388;2023-05-10T06:35:59;5.70;;;2.60;;
72926;SDS011;61071;51.618;19.388;2023-05-10T06:38:25;3.88;;;2.90;;
72926;SDS011;61071;51.618;19.388;2023-05-10T06:40:51;3.75;;;2.80;;
72926;SDS011;61071;51.618;19.388;2023-05-10T06:43:17;6.78;;;2.85;;
72926;SDS011;61071;51.618;19.388;2023-05-10T06:45:43;4.82;;;2.88;;
72926;SDS011;61071;51.618;19.388;2023-05-10T06:48:08;3.40;;;2.70;;
72926;SDS011;61071;51.618;19.388;2023-05-10T06:50:34;8.02;;;2.95;;
72926;SDS011;61071;51.618;19.388;2023-05-10T06:53:00;3.80;;;2.33;;
72926;SDS011;61071;51.618;19.388;2023-05-10T06:55:27;7.25;;;3.00;;
72926;SDS011;61071;51.618;19.388;2023-05-10T06:57:53;4.82;;;2.47;;
72926;SDS011;61071;51.618;19.388;2023-05-10T07:00:19;4.80;;;2.97;;
72926;SDS011;61071;51.618;19.388;2023-05-10T07:02:45;3.72;;;2.85;;
72926;SDS011;61071;51.618;19.388;2023-05-10T07:05:12;4.80;;;2.95;;
72926;SDS011;61071;51.618;19.388;2023-05-10T07:07:39;3.58;;;2.60;;
72926;SDS011;61071;51.618;19.388;2023-05-10T07:10:05;7.53;;;2.70;;
72926;SDS011;61071;51.618;19.388;2023-05-10T07:12:32;5.25;;;2.42;;
72926;SDS011;61071;51.618;19.388;2023-05-10T07:14:58;5.18;;;2.90;;
72926;SDS011;61071;51.618;19.388;2023-05-10T07:17:24;3.55;;;2.20;;
72926;SDS011;61071;51.618;19.388;2023-05-10T07:19:49;6.93;;;3.00;;
72926;SDS011;61071;51.618;19.388;2023-05-10T07:22:15;5.53;;;2.80;;
72926;SDS011;61071;51.618;19.388;2023-05-10T07:24:42;6.20;;;3.00;;
72926;SDS011;61071;51.618;19.388;2023-05-10T07:27:08;4.22;;;2.50;;
72926;SDS011;61071;51.618;19.388;2023-05-10T07:29:34;4.90;;;2.90;;
72926;SDS011;61071;51.618;19.388;2023-05-10T07:32:01;6.97;;;2.80;;
72926;SDS011;61071;51.618;19.388;2023-05-10T07:34:26;6.22;;;2.75;;
72926;SDS011;61071;51.618;19.388;2023-05-10T07:36:53;4.70;;;2.50;;
72926;SDS011;61071;51.618;19.388;2023-05-10T07:39:19;4.70;;;3.03;;
72926;SDS011;61071;51.618;19.388;2023-05-10T10:06:38;4.05;;;1.70;;
72926;SDS011;61071;51.618;19.388;2023-05-10T10:09:05;3.78;;;2.00;;
72926;SDS011;61071;51.618;19.388;2023-05-10T10:11:35;6.18;;;2.17;;
72926;SDS011;61071;51.618;19.388;2023-05-10T10:14:02;3.20;;;2.03;;
72926;SDS011;61071;51.618;19.388;2023-05-10T10:16:28;3.45;;;2.30;;
72926;SDS011;61071;51.618;19.388;2023-05-10T10:18:55;3.70;;;1.90;;
72926;SDS011;61071;51.618;19.388;2023-05-10T10:21:21;5.13;;;2.00;;
72926;SDS011;61071;51.618;19.388;2023-05-10T10:23:47;4.47;;;2.13;;
72926;SDS011;61071;51.618;19.388;2023-05-10T10:26:13;3.60;;;1.77;;
72926;SDS011;61071;51.618;19.388;2023-05-10T10:32:12;5.53;;;1.95;;
72926;SDS011;61071;51.618;19.388;2023-05-10T10:34:51;3.03;;;1.80;;
72926;SDS011;61071;51.618;19.388;2023-05-10T10:37:17;2.90;;;1.88;;
72926;SDS011;61071;51.618;19.388;2023-05-10T10:39:42;4.25;;;2.17;;
72926;SDS011;61071;51.618;19.388;2023-05-10T10:42:08;2.03;;;1.60;;
72926;SDS011;61071;51.618;19.388;2023-05-10T10:44:36;3.63;;;2.20;;
72926;SDS011;61071;51.618;19.388;2023-05-10T10:49:48;2.35;;;1.83;;
72926;SDS011;61071;51.618;19.388;2023-05-10T10:55:08;4.47;;;1.98;;
72926;SDS011;61071;51.618;19.388;2023-05-10T10:57:50;2.63;;;1.80;;
72926;SDS011;61071;51.618;19.388;2023-05-10T11:02:57;5.47;;;2.13;;
72926;SDS011;61071;51.618;19.388;2023-05-10T11:05:35;2.42;;;1.98;;
72926;SDS011;61071;51.618;19.388;2023-05-10T11:13:38;4.53;;;1.80;;
72926;SDS011;61071;51.618;19.388;2023-05-10T11:16:23;3.05;;;1.73;;
72926;SDS011;61071;51.618;19.388;2023-05-10T11:18:54;4.82;;;1.85;;
72926;SDS011;61071;51.618;19.388;2023-05-10T11:21:30;5.28;;;2.22;;
72926;SDS011;61071;51.618;19.388;2023-05-10T11:23:58;4.22;;;1.80;;
72926;SDS011;61071;51.618;19.388;2023-05-10T11:26:32;3.08;;;2.05;;
72926;SDS011;61071;51.618;19.388;2023-05-10T11:29:00;3.17;;;2.05;;
72926;SDS011;61071;51.618;19.388;2023-05-10T11:31:27;5.88;;;2.67;;
72926;SDS011;61071;51.618;19.388;2023-05-10T11:33:54;2.65;;;1.95;;
72926;SDS011;61071;51.618;19.388;2023-05-10T11:36:23;5.82;;;2.17;;
72926;SDS011;61071;51.618;19.388;2023-05-10T11:38:53;6.43;;;1.95;;
72926;SDS011;61071;51.618;19.388;2023-05-10T11:41:20;5.82;;;1.80;;
72926;SDS011;61071;51.618;19.388;2023-05-10T11:43:47;3.50;;;1.90;;
72926;SDS011;61071;51.618;19.388;2023-05-10T11:46:16;3.17;;;1.80;;
72926;SDS011;61071;51.618;19.388;2023-05-10T11:48:45;4.97;;;1.80;;
72926;SDS011;61071;51.618;19.388;2023-05-10T11:51:14;3.65;;;1.58;;
72926;SDS011;61071;51.618;19.388;2023-05-10T11:53:39;4.55;;;2.03;;
72926;SDS011;61071;51.618;19.388;2023-05-10T11:56:05;3.08;;;1.90;;
72926;SDS011;61071;51.618;19.388;2023-05-10T11:58:33;3.17;;;1.85;;
72926;SDS011;61071;51.618;19.388;2023-05-10T12:01:00;2.22;;;1.65;;
72926;SDS011;61071;51.618;19.388;2023-05-10T12:03:27;2.72;;;1.90;;
72926;SDS011;61071;51.618;19.388;2023-05-10T12:05:54;4.65;;;1.77;;
72926;SDS011;61071;51.618;19.388;2023-05-10T12:08:24;2.95;;;1.63;;
72926;SDS011;61071;51.618;19.388;2023-05-10T12:10:53;5.68;;;1.90;;
72926;SDS011;61071;51.618;19.388;2023-05-10T12:13:30;2.60;;;2.00;;
72926;SDS011;61071;51.618;19.388;2023-05-10T12:15:58;2.75;;;1.50;;
72926;SDS011;61071;51.618;19.388;2023-05-10T12:18:24;2.08;;;1.80;;
72926;SDS011;61071;51.618;19.388;2023-05-10T12:20:51;2.00;;;1.80;;
72926;SDS011;61071;51.618;19.388;2023-05-10T12:23:18;2.50;;;1.80;;
72926;SDS011;61071;51.618;19.388;2023-05-10T12:25:45;4.68;;;1.88;;
72926;SDS011;61071;51.618;19.388;2023-05-10T12:28:11;2.42;;;1.80;;
72926;SDS011;61071;51.618;19.388;2023-05-10T12:30:37;5.38;;;2.20;;
72926;SDS011;61071;51.618;19.388;2023-05-10T12:33:07;2.45;;;1.80;;
72926;SDS011;61071;51.618;19.388;2023-05-10T12:35:43;5.20;;;2.05;;
72926;SDS011;61071;51.618;19.388;2023-05-10T12:38:24;6.05;;;1.80;;
72926;SDS011;61071;51.618;19.388;2023-05-10T12:41:01;3.17;;;1.80;;
72926;SDS011;61071;51.618;19.388;2023-05-10T12:43:29;2.63;;;2.10;;
72926;SDS011;61071;51.618;19.388;2023-05-10T12:45:55;3.75;;;2.35;;
72926;SDS011;61071;51.618;19.388;2023-05-10T12:48:21;2.40;;;1.80;;
72926;SDS011;61071;51.618;19.388;2023-05-10T12:50:47;5.00;;;1.73;;
72926;SDS011;61071;51.618;19.388;2023-05-10T12:53:13;2.70;;;1.67;;
72926;SDS011;61071;51.618;19.388;2023-05-10T12:55:40;1.73;;;1.52;;
72926;SDS011;61071;51.618;19.388;2023-05-10T12:58:07;4.57;;;1.80;;
72926;SDS011;61071;51.618;19.388;2023-05-10T13:00:32;3.13;;;2.00;;
72926;SDS011;61071;51.618;19.388;2023-05-10T13:02:58;2.00;;;1.80;;
72926;SDS011;61071;51.618;19.388;2023-05-10T13:05:23;5.55;;;2.00;;
72926;SDS011;61071;51.618;19.388;2023-05-10T13:07:49;4.68;;;1.83;;
72926;SDS011;61071;51.618;19.388;2023-05-10T13:10:14;4.55;;;1.63;;
72926;SDS011;61071;51.618;19.388;2023-05-10T13:12:40;14.43;;;2.08;;
72926;SDS011;61071;51.618;19.388;2023-05-10T13:15:05;4.95;;;2.25;;
72926;SDS011;61071;51.618;19.388;2023-05-10T13:17:31;3.30;;;1.77;;
72926;SDS011;61071;51.618;19.388;2023-05-10T13:19:57;2.65;;;1.70;;
72926;SDS011;61071;51.618;19.388;2023-05-10T13:22:22;4.45;;;2.00;;
72926;SDS011;61071;51.618;19.388;2023-05-10T13:24:47;2.58;;;1.80;;
72926;SDS011;61071;51.618;19.388;2023-05-10T13:27:13;7.32;;;1.77;;
72926;SDS011;61071;51.618;19.388;2023-05-10T13:29:38;5.47;;;1.75;;
72926;SDS011;61071;51.618;19.388;2023-05-10T13:32:04;4.22;;;1.73;;
72926;SDS011;61071;51.618;19.388;2023-05-10T13:34:29;3.08;;;1.80;;
72926;SDS011;61071;51.618;19.388;2023-05-10T13:36:55;5.13;;;1.80;;
72926;SDS011;61071;51.618;19.388;2023-05-10T13:39:21;6.05;;;2.00;;
72926;SDS011;61071;51.618;19.388;2023-05-10T13:41:47;2.40;;;1.75;;
72926;SDS011;61071;51.618;19.388;2023-05-10T13:44:13;6.65;;;1.63;;
72926;SDS011;61071;51.618;19.388;2023-05-10T13:46:39;4.60;;;1.80;;
72926;SDS011;61071;51.618;19.388;2023-05-10T13:49:07;4.55;;;1.90;;
72926;SDS011;61071;51.618;19.388;2023-05-10T13:51:33;4.93;;;2.03;;
72926;SDS011;61071;51.618;19.388;2023-05-10T13:53:59;2.72;;;1.70;;
72926;SDS011;61071;51.618;19.388;2023-05-10T13:56:37;5.32;;;1.90;;
72926;SDS011;61071;51.618;19.388;2023-05-10T13:59:02;2.03;;;1.60;;
72926;SDS011;61071;51.618;19.388;2023-05-10T14:01:28;6.38;;;1.83;;
72926;SDS011;61071;51.618;19.388;2023-05-10T14:03:53;5.38;;;1.90;;
72926;SDS011;61071;51.618;19.388;2023-05-10T14:06:19;2.38;;;1.50;;
72926;SDS011;61071;51.618;19.388;2023-05-10T14:08:44;5.22;;;1.90;;
72926;SDS011;61071;51.618;19.388;2023-05-10T14:11:10;5.90;;;1.92;;
72926;SDS011;61071;51.618;19.388;2023-05-10T14:13:36;2.33;;;1.67;;
72926;SDS011;61071;51.618;19.388;2023-05-10T14:16:02;10.10;;;1.83;;
72926;SDS011;61071;51.618;19.388;2023-05-10T14:18:27;4.88;;;2.05;;
72926;SDS011;61071;51.618;19.388;2023-05-10T14:20:53;4.80;;;2.13;;
72926;SDS011;61071;51.618;19.388;2023-05-10T14:23:18;2.83;;;1.70;;
72926;SDS011;61071;51.618;19.388;2023-05-10T14:25:49;3.40;;;2.22;;
72926;SDS011;61071;51.618;19.388;2023-05-10T14:28:16;4.15;;;1.75;;
72926;SDS011;61071;51.618;19.388;2023-05-10T14:30:42;5.97;;;2.00;;
72926;SDS011;61071;51.618;19.388;2023-05-10T14:33:08;3.05;;;1.65;;
72926;SDS011;61071;51.618;19.388;2023-05-10T14:35:33;5.60;;;1.80;;
72926;SDS011;61071;51.618;19.388;2023-05-10T14:37:59;3.63;;;1.92;;
72926;SDS011;61071;51.618;19.388;2023-05-10T14:40:24;4.22;;;1.98;;
72926;SDS011;61071;51.618;19.388;2023-05-10T14:42:50;3.22;;;1.88;;
72926;SDS011;61071;51.618;19.388;2023-05-10T14:45:17;4.55;;;1.80;;
72926;SDS011;61071;51.618;19.388;2023-05-10T14:47:43;4.43;;;1.77;;
72926;SDS011;61071;51.618;19.388;2023-05-10T14:50:08;5.20;;;2.15;;
72926;SDS011;61071;51.618;19.388;2023-05-10T14:55:59;1.95;;;1.70;;
72926;SDS011;61071;51.618;19.388;2023-05-10T14:58:26;4.32;;;1.83;;
72926;SDS011;61071;51.618;19.388;2023-05-10T15:00:52;4.95;;;1.70;;
72926;SDS011;61071;51.618;19.388;2023-05-10T15:03:17;2.40;;;1.83;;
72926;SDS011;61071;51.618;19.388;2023-05-10T15:05:43;4.95;;;1.80;;
72926;SDS011;61071;51.618;19.388;2023-05-10T15:08:09;2.55;;;1.95;;
72926;SDS011;61071;51.618;19.388;2023-05-10T15:10:34;2.78;;;1.73;;
72926;SDS011;61071;51.618;19.388;2023-05-10T15:13:03;3.80;;;1.70;;
72926;SDS011;61071;51.618;19.388;2023-05-10T15:15:29;7.47;;;2.15;;
72926;SDS011;61071;51.618;19.388;2023-05-10T15:17:54;8.65;;;1.80;;
72926;SDS011;61071;51.618;19.388;2023-05-10T15:20:21;2.67;;;1.80;;
72926;SDS011;61071;51.618;19.388;2023-05-10T15:22:46;2.88;;;1.80;;
72926;SDS011;61071;51.618;19.388;2023-05-10T15:25:12;5.72;;;1.70;;
72926;SDS011;61071;51.618;19.388;2023-05-10T15:27:38;5.53;;;1.77;;
72926;SDS011;61071;51.618;19.388;2023-05-10T15:30:03;4.78;;;1.80;;
72926;SDS011;61071;51.618;19.388;2023-05-10T15:32:30;3.85;;;1.67;;
72926;SDS011;61071;51.618;19.388;2023-05-10T15:34:55;3.63;;;1.90;;
72926;SDS011;61071;51.618;19.388;2023-05-10T15:37:21;5.95;;;1.80;;
72926;SDS011;61071;51.618;19.388;2023-05-10T15:39:48;3.67;;;1.70;;
72926;SDS011;61071;51.618;19.388;2023-05-10T15:42:13;2.47;;;1.75;;
72926;SDS011;61071;51.618;19.388;2023-05-10T15:44:38;3.97;;;1.95;;
72926;SDS011;61071;51.618;19.388;2023-05-10T15:47:04;2.85;;;1.90;;
72926;SDS011;61071;51.618;19.388;2023-05-10T15:49:30;2.58;;;1.88;;
72926;SDS011;61071;51.618;19.388;2023-05-10T15:51:56;2.88;;;1.70;;
72926;SDS011;61071;51.618;19.388;2023-05-10T15:54:21;2.65;;;1.83;;
72926;SDS011;61071;51.618;19.388;2023-05-10T15:56:47;3.35;;;2.00;;
72926;SDS011;61071;51.618;19.388;2023-05-10T15:59:13;6.45;;;2.00;;
72926;SDS011;61071;51.618;19.388;2023-05-10T16:01:38;3.88;;;1.80;;
72926;SDS011;61071;51.618;19.388;2023-05-10T16:04:04;3.55;;;1.70;;
72926;SDS011;61071;51.618;19.388;2023-05-10T16:06:29;3.67;;;1.80;;
72926;SDS011;61071;51.618;19.388;2023-05-10T16:08:55;4.22;;;1.67;;
72926;SDS011;61071;51.618;19.388;2023-05-10T16:11:20;5.93;;;1.80;;
72926;SDS011;61071;51.618;19.388;2023-05-10T16:13:46;3.58;;;1.88;;
72926;SDS011;61071;51.618;19.388;2023-05-10T16:16:11;2.75;;;1.70;;
72926;SDS011;61071;51.618;19.388;2023-05-10T16:18:37;5.20;;;1.98;;
72926;SDS011;61071;51.618;19.388;2023-05-10T16:21:02;4.70;;;1.75;;
72926;SDS011;61071;51.618;19.388;2023-05-10T16:23:28;3.13;;;1.70;;
72926;SDS011;61071;51.618;19.388;2023-05-10T16:25:54;5.43;;;1.80;;
72926;SDS011;61071;51.618;19.388;2023-05-10T16:28:20;5.88;;;2.08;;
72926;SDS011;61071;51.618;19.388;2023-05-10T16:30:46;5.03;;;2.08;;
72926;SDS011;61071;51.618;19.388;2023-05-10T16:33:12;4.45;;;1.75;;
72926;SDS011;61071;51.618;19.388;2023-05-10T16:35:38;3.90;;;2.08;;
72926;SDS011;61071;51.618;19.388;2023-05-10T16:38:04;2.25;;;1.90;;
72926;SDS011;61071;51.618;19.388;2023-05-10T16:40:31;3.25;;;2.00;;
72926;SDS011;61071;51.618;19.388;2023-05-10T16:42:56;8.20;;;1.70;;
72926;SDS011;61071;51.618;19.388;2023-05-10T16:45:22;3.33;;;2.13;;
72926;SDS011;61071;51.618;19.388;2023-05-10T16:47:48;3.05;;;1.77;;
72926;SDS011;61071;51.618;19.388;2023-05-10T16:50:13;3.40;;;1.88;;
72926;SDS011;61071;51.618;19.388;2023-05-10T16:52:39;5.18;;;2.00;;
72926;SDS011;61071;51.618;19.388;2023-05-10T16:55:05;3.60;;;1.80;;
72926;SDS011;61071;51.618;19.388;2023-05-10T16:57:30;4.20;;;1.80;;
72926;SDS011;61071;51.618;19.388;2023-05-10T16:59:56;4.43;;;1.98;;
72926;SDS011;61071;51.618;19.388;2023-05-10T17:02:22;2.47;;;1.80;;
72926;SDS011;61071;51.618;19.388;2023-05-10T17:04:48;4.88;;;2.10;;
72926;SDS011;61071;51.618;19.388;2023-05-10T17:07:14;5.88;;;1.90;;
72926;SDS011;61071;51.618;19.388;2023-05-10T17:09:40;4.80;;;2.22;;
72926;SDS011;61071;51.618;19.388;2023-05-10T17:12:07;11.35;;;2.30;;
72926;SDS011;61071;51.618;19.388;2023-05-10T17:14:32;6.75;;;1.83;;
72926;SDS011;61071;51.618;19.388;2023-05-10T17:16:58;6.32;;;2.03;;
72926;SDS011;61071;51.618;19.388;2023-05-10T17:19:24;5.57;;;2.25;;
72926;SDS011;61071;51.618;19.388;2023-05-10T17:21:49;3.17;;;2.05;;
72926;SDS011;61071;51.618;19.388;2023-05-10T17:24:15;7.20;;;2.05;;
72926;SDS011;61071;51.618;19.388;2023-05-10T17:26:40;6.18;;;2.08;;
72926;SDS011;61071;51.618;19.388;2023-05-10T17:29:06;7.22;;;2.53;;
72926;SDS011;61071;51.618;19.388;2023-05-10T17:31:31;3.60;;;2.00;;
72926;SDS011;61071;51.618;19.388;2023-05-10T17:33:57;13.00;;;2.90;;
72926;SDS011;61071;51.618;19.388;2023-05-10T17:36:23;8.45;;;2.00;;
72926;SDS011;61071;51.618;19.388;2023-05-10T17:38:49;4.38;;;1.90;;